Airfield :
LOGIN :

Register | Disclaimer

   EN    FR    IT 

 










Legend :    VFR   Marginal VFR   IFR   Intensive IFR   Very Intensive IFR
Visi :
Ceiling :
>= 8 km
>= 3000ft
5 to 8 km
1000 to 3000 ft
1500m to 5 km
500 to 1000 ft
800 to 1500m
200 to 500 ft
< 800m
< 200 ft
Symbols :   Thunderstorms  Fog  Heavy snow  Heavy precipitations  Wind > 20 kt
SIGMETs :     Misc.  Thunderstorms  Icing  Turbulence  Mountain Waves  Volcanic Ashes







- Airport Elevation : 1325 ft
- IATA code : EBU
- Download approach charts


LFMH - St-Etienne Boutheon

CURRENT METAR :
  • 182100Z AUTO VRB01KT 9999 OVC026 03/01 Q1024 TEMPO 4000 BR

EXPIRED METARs :
  • 182030Z AUTO 03001KT 9999 OVC027 03/00 Q1025 TEMPO 4000 BR
  • 182000Z AUTO 00000KT 9999 OVC028 03/00 Q1024 NOSIG
  • 181930Z AUTO 00000KT 9999 OVC027 03/01 Q1024 NOSIG
  • 181900Z AUTO 00000KT 9999 OVC027 04/00 Q1024 NOSIG
  • 181830Z AUTO VRB02KT 9999 OVC027 04/00 Q1024 NOSIG

TAF TAF LFMH
Valid from the 18 at 15:00 until the 19 at 15:00 UTC


181400Z 1815/1915 33006KT 9999 FEW020 BKN030
PROB30
TEMPO 1822/1905 4000 BR SCT010 OVC020
ATIS : +33 4 77 36 17 51
No reported NOTAMs for that airfield.



MET'MAP, your aeronautical weather chart ! - Copyright ORBIFLY December 2007 - Disclaimer

ORBIFLY MET'MAP TEAM :

Programming & Development : Alexandra Zaïnal
Concept & Development : Baudouin d'Aumeries
Co-Development & Prog : Marc-Olivier Méhu
Technical & hardware support : Manuel Goepfert

Contact : metmap@orbifly.com




SOURCES & CREDITS :

   NOAA